sensor_id;sensor_type;location;lat;lon;timestamp;pressure;altitude;pressure_sealevel;temperature;humidity
58471;BME280;44258;51.288;12.068;2023-04-02T00:01:18;99793.84;;;4.06;84.41
58471;BME280;44258;51.288;12.068;2023-04-02T00:04:23;99802.16;;;3.73;85.97
58471;BME280;44258;51.288;12.068;2023-04-02T00:07:26;99803.94;;;4.43;83.95
58471;BME280;44258;51.288;12.068;2023-04-02T00:09:56;99808.72;;;4.11;84.03
58471;BME280;44258;51.288;12.068;2023-04-02T00:12:22;99812.84;;;3.95;85.63
58471;BME280;44258;51.288;12.068;2023-04-02T00:14:51;99821.03;;;4.14;84.12
58471;BME280;44258;51.288;12.068;2023-04-02T00:17:20;99827.72;;;4.01;84.45
58471;BME280;44258;51.288;12.068;2023-04-02T00:19:54;99828.88;;;4.17;83.95
58471;BME280;44258;51.288;12.068;2023-04-02T00:22:27;99834.78;;;4.49;82.16
58471;BME280;44258;51.288;12.068;2023-04-02T00:25:00;99837.25;;;4.76;80.97
58471;BME280;44258;51.288;12.068;2023-04-02T00:27:29;99851.09;;;4.16;84.13
58471;BME280;44258;51.288;12.068;2023-04-02T00:29:57;99857.47;;;3.63;85.80
58471;BME280;44258;51.288;12.068;2023-04-02T00:32:29;99860.16;;;3.35;86.38
58471;BME280;44258;51.288;12.068;2023-04-02T00:34:57;99853.31;;;4.28;83.69
58471;BME280;44258;51.288;12.068;2023-04-02T00:37:27;99863.53;;;3.67;85.49
58471;BME280;44258;51.288;12.068;2023-04-02T00:40:11;99864.19;;;4.22;84.75
58471;BME280;44258;51.288;12.068;2023-04-02T00:42:42;99876.75;;;4.64;80.18
58471;BME280;44258;51.288;12.068;2023-04-02T00:45:21;99876.97;;;4.36;81.11
58471;BME280;44258;51.288;12.068;2023-04-02T00:47:51;99880.69;;;4.32;81.02
58471;BME280;44258;51.288;12.068;2023-04-02T00:50:22;99881.88;;;4.00;82.20
58471;BME280;44258;51.288;12.068;2023-04-02T00:52:53;99890.81;;;3.97;82.09
58471;BME280;44258;51.288;12.068;2023-04-02T00:55:29;99900.75;;;3.92;82.70
58471;BME280;44258;51.288;12.068;2023-04-02T00:57:58;99898.31;;;3.86;83.13
58471;BME280;44258;51.288;12.068;2023-04-02T01:00:28;99900.59;;;3.97;83.30
58471;BME280;44258;51.288;12.068;2023-04-02T01:03:27;99907.31;;;3.57;83.63
58471;BME280;44258;51.288;12.068;2023-04-02T01:05:59;99912.34;;;4.15;81.84
58471;BME280;44258;51.288;12.068;2023-04-02T01:11:35;99916.94;;;3.61;83.29
58471;BME280;44258;51.288;12.068;2023-04-02T01:14:15;99936.38;;;3.35;84.00
58471;BME280;44258;51.288;12.068;2023-04-02T01:16:56;99932.84;;;2.78;85.90
58471;BME280;44258;51.288;12.068;2023-04-02T01:19:43;99936.47;;;2.75;86.39
58471;BME280;44258;51.288;12.068;2023-04-02T01:22:20;99945.91;;;2.85;86.01
58471;BME280;44258;51.288;12.068;2023-04-02T01:24:55;99953.56;;;2.95;85.98
58471;BME280;44258;51.288;12.068;2023-04-02T01:27:25;99956.00;;;2.72;86.67
58471;BME280;44258;51.288;12.068;2023-04-02T01:30:02;99954.75;;;3.14;85.94
58471;BME280;44258;51.288;12.068;2023-04-02T01:32:39;99967.38;;;2.46;87.89
58471;BME280;44258;51.288;12.068;2023-04-02T01:35:09;99983.91;;;2.25;89.07
58471;BME280;44258;51.288;12.068;2023-04-02T01:37:41;99978.22;;;2.39;87.88
58471;BME280;44258;51.288;12.068;2023-04-02T01:40:21;99984.47;;;2.36;87.71
58471;BME280;44258;51.288;12.068;2023-04-02T01:42:57;99991.09;;;2.52;87.88
58471;BME280;44258;51.288;12.068;2023-04-02T01:45:31;99997.19;;;2.56;87.70
58471;BME280;44258;51.288;12.068;2023-04-02T01:48:04;99993.44;;;2.93;86.97
58471;BME280;44258;51.288;12.068;2023-04-02T01:50:34;99997.28;;;3.12;85.55
58471;BME280;44258;51.288;12.068;2023-04-02T01:53:07;99998.16;;;3.41;83.66
58471;BME280;44258;51.288;12.068;2023-04-02T01:55:43;100004.31;;;3.97;81.13
58471;BME280;44258;51.288;12.068;2023-04-02T01:58:17;100008.03;;;3.92;80.80
58471;BME280;44258;51.288;12.068;2023-04-02T02:00:51;100009.31;;;3.24;83.73
58471;BME280;44258;51.288;12.068;2023-04-02T02:03:20;100011.97;;;3.24;85.33
58471;BME280;44258;51.288;12.068;2023-04-02T02:05:48;100021.53;;;3.86;81.97
58471;BME280;44258;51.288;12.068;2023-04-02T02:08:31;100027.81;;;3.27;82.30
58471;BME280;44258;51.288;12.068;2023-04-02T02:11:03;100025.56;;;3.43;83.12
58471;BME280;44258;51.288;12.068;2023-04-02T02:13:30;100044.41;;;2.76;85.05
58471;BME280;44258;51.288;12.068;2023-04-02T02:15:59;100045.78;;;2.58;85.85
58471;BME280;44258;51.288;12.068;2023-04-02T02:18:30;100054.28;;;3.02;83.30
58471;BME280;44258;51.288;12.068;2023-04-02T02:21:11;100053.56;;;2.64;83.90
58471;BME280;44258;51.288;12.068;2023-04-02T02:23:46;100051.78;;;2.32;84.90
58471;BME280;44258;51.288;12.068;2023-04-02T02:26:14;100064.84;;;2.41;84.49
58471;BME280;44258;51.288;12.068;2023-04-02T02:28:44;100060.81;;;2.90;83.06
58471;BME280;44258;51.288;12.068;2023-04-02T02:31:22;100072.28;;;2.91;81.21
58471;BME280;44258;51.288;12.068;2023-04-02T02:33:59;100072.19;;;2.96;83.74
58471;BME280;44258;51.288;12.068;2023-04-02T02:36:32;100080.84;;;3.02;82.93
58471;BME280;44258;51.288;12.068;2023-04-02T02:39:03;100084.84;;;2.86;83.67
58471;BME280;44258;51.288;12.068;2023-04-02T02:41:36;100085.59;;;2.58;85.78
58471;BME280;44258;51.288;12.068;2023-04-02T02:44:12;100093.66;;;2.86;84.70
58471;BME280;44258;51.288;12.068;2023-04-02T02:46:45;100107.94;;;2.51;85.26
58471;BME280;44258;51.288;12.068;2023-04-02T02:49:17;100108.94;;;2.78;84.88
58471;BME280;44258;51.288;12.068;2023-04-02T02:51:46;100103.16;;;2.95;82.91
58471;BME280;44258;51.288;12.068;2023-04-02T02:54:17;100105.16;;;3.18;82.00
58471;BME280;44258;51.288;12.068;2023-04-02T02:56:52;100118.19;;;2.96;82.58
58471;BME280;44258;51.288;12.068;2023-04-02T02:59:20;100121.94;;;3.20;82.90
58471;BME280;44258;51.288;12.068;2023-04-02T03:01:49;100127.91;;;2.64;83.86
58471;BME280;44258;51.288;12.068;2023-04-02T03:04:18;100126.47;;;2.85;84.44
58471;BME280;44258;51.288;12.068;2023-04-02T03:06:52;100141.97;;;2.68;83.65
58471;BME280;44258;51.288;12.068;2023-04-02T03:09:22;100135.13;;;3.23;81.30
58471;BME280;44258;51.288;12.068;2023-04-02T03:11:58;100144.25;;;2.82;83.58
58471;BME280;44258;51.288;12.068;2023-04-02T03:14:37;100155.44;;;2.93;83.85
58471;BME280;44258;51.288;12.068;2023-04-02T03:17:10;100152.16;;;2.16;87.00
58471;BME280;44258;51.288;12.068;2023-04-02T03:19:43;100172.16;;;2.29;85.87
58471;BME280;44258;51.288;12.068;2023-04-02T03:22:15;100160.69;;;2.63;85.11
58471;BME280;44258;51.288;12.068;2023-04-02T03:24:51;100164.88;;;2.38;85.88
58471;BME280;44258;51.288;12.068;2023-04-02T03:27:23;100174.28;;;2.51;84.99
58471;BME280;44258;51.288;12.068;2023-04-02T03:29:59;100173.91;;;2.30;85.45
58471;BME280;44258;51.288;12.068;2023-04-02T03:32:33;100178.38;;;2.28;85.46
58471;BME280;44258;51.288;12.068;2023-04-02T03:35:17;100177.44;;;2.31;85.86
58471;BME280;44258;51.288;12.068;2023-04-02T03:37:50;100182.22;;;2.15;85.90
58471;BME280;44258;51.288;12.068;2023-04-02T03:40:23;100187.38;;;2.21;85.94
58471;BME280;44258;51.288;12.068;2023-04-02T03:42:57;100193.75;;;2.14;85.04
58471;BME280;44258;51.288;12.068;2023-04-02T03:45:32;100201.19;;;1.58;87.99
58471;BME280;44258;51.288;12.068;2023-04-02T03:48:06;100210.81;;;2.02;87.25
58471;BME280;44258;51.288;12.068;2023-04-02T03:50:43;100209.53;;;2.20;85.09
58471;BME280;44258;51.288;12.068;2023-04-02T03:53:11;100214.41;;;2.00;86.54
58471;BME280;44258;51.288;12.068;2023-04-02T03:55:39;100220.78;;;1.91;86.72
58471;BME280;44258;51.288;12.068;2023-04-02T03:58:13;100244.25;;;2.08;85.56
58471;BME280;44258;51.288;12.068;2023-04-02T04:00:45;100228.78;;;1.89;86.30
58471;BME280;44258;51.288;12.068;2023-04-02T04:03:18;100244.50;;;1.57;87.81
58471;BME280;44258;51.288;12.068;2023-04-02T04:05:50;100246.88;;;1.69;87.67
58471;BME280;44258;51.288;12.068;2023-04-02T04:08:23;100256.09;;;2.32;85.63
58471;BME280;44258;51.288;12.068;2023-04-02T04:10:51;100262.31;;;2.31;85.13
58471;BME280;44258;51.288;12.068;2023-04-02T04:13:30;100274.63;;;1.95;86.11
58471;BME280;44258;51.288;12.068;2023-04-02T04:16:03;100276.00;;;2.51;83.50
58471;BME280;44258;51.288;12.068;2023-04-02T04:18:42;100280.19;;;2.24;84.79
58471;BME280;44258;51.288;12.068;2023-04-02T04:21:15;100287.59;;;2.47;84.46
58471;BME280;44258;51.288;12.068;2023-04-02T04:24:00;100295.88;;;2.33;84.00
58471;BME280;44258;51.288;12.068;2023-04-02T04:26:35;100306.31;;;2.79;82.75
58471;BME280;44258;51.288;12.068;2023-04-02T04:29:08;100307.56;;;2.64;82.41
58471;BME280;44258;51.288;12.068;2023-04-02T04:31:40;100318.47;;;2.12;84.90
58471;BME280;44258;51.288;12.068;2023-04-02T04:34:17;100322.34;;;2.37;85.27
58471;BME280;44258;51.288;12.068;2023-04-02T04:36:48;100324.91;;;2.40;85.55
58471;BME280;44258;51.288;12.068;2023-04-02T04:39:25;100338.41;;;1.88;85.44
58471;BME280;44258;51.288;12.068;2023-04-02T04:41:56;100344.16;;;2.09;85.54
58471;BME280;44258;51.288;12.068;2023-04-02T04:44:30;100343.94;;;2.59;83.60
58471;BME280;44258;51.288;12.068;2023-04-02T04:47:07;100353.31;;;1.94;85.83
58471;BME280;44258;51.288;12.068;2023-04-02T04:49:41;100367.34;;;1.54;87.88
58471;BME280;44258;51.288;12.068;2023-04-02T04:52:16;100372.19;;;1.77;86.42
58471;BME280;44258;51.288;12.068;2023-04-02T04:54:45;100378.56;;;1.67;86.14
58471;BME280;44258;51.288;12.068;2023-04-02T04:57:22;100373.94;;;2.23;83.06
58471;BME280;44258;51.288;12.068;2023-04-02T04:59:56;100392.00;;;2.04;83.96
58471;BME280;44258;51.288;12.068;2023-04-02T05:02:30;100397.22;;;1.62;85.24
58471;BME280;44258;51.288;12.068;2023-04-02T05:05:01;100395.50;;;2.06;83.80
58471;BME280;44258;51.288;12.068;2023-04-02T05:07:31;100403.75;;;1.91;83.93
58471;BME280;44258;51.288;12.068;2023-04-02T05:10:06;100405.03;;;2.15;84.51
58471;BME280;44258;51.288;12.068;2023-04-02T05:12:42;100403.41;;;2.51;83.58
58471;BME280;44258;51.288;12.068;2023-04-02T05:15:13;100423.03;;;1.99;84.96
58471;BME280;44258;51.288;12.068;2023-04-02T05:17:44;100417.25;;;2.24;85.08
58471;BME280;44258;51.288;12.068;2023-04-02T05:20:21;100430.75;;;1.65;85.62
58471;BME280;44258;51.288;12.068;2023-04-02T05:23:02;100434.84;;;1.83;85.33
58471;BME280;44258;51.288;12.068;2023-04-02T05:25:31;100443.97;;;1.66;85.53
58471;BME280;44258;51.288;12.068;2023-04-02T05:28:02;100443.09;;;1.66;85.68
58471;BME280;44258;51.288;12.068;2023-04-02T05:30:37;100445.31;;;1.90;85.15
58471;BME280;44258;51.288;12.068;2023-04-02T05:33:16;100461.25;;;1.89;84.64
58471;BME280;44258;51.288;12.068;2023-04-02T05:35:56;100463.13;;;1.84;84.30
58471;BME280;44258;51.288;12.068;2023-04-02T05:38:26;100470.06;;;1.38;86.94
58471;BME280;44258;51.288;12.068;2023-04-02T05:40:58;100477.16;;;1.89;84.52
58471;BME280;44258;51.288;12.068;2023-04-02T05:43:27;100475.88;;;1.60;86.00
58471;BME280;44258;51.288;12.068;2023-04-02T05:46:04;100491.81;;;1.59;86.43
58471;BME280;44258;51.288;12.068;2023-04-02T05:48:38;100487.06;;;2.26;84.28
58471;BME280;44258;51.288;12.068;2023-04-02T05:51:15;100501.22;;;1.77;83.72
58471;BME280;44258;51.288;12.068;2023-04-02T05:53:48;100492.84;;;2.00;83.40
58471;BME280;44258;51.288;12.068;2023-04-02T05:56:19;100499.91;;;1.49;84.98
58471;BME280;44258;51.288;12.068;2023-04-02T05:58:49;100518.38;;;1.54;84.68
58471;BME280;44258;51.288;12.068;2023-04-02T06:01:22;100516.56;;;1.59;83.60
58471;BME280;44258;51.288;12.068;2023-04-02T06:03:56;100513.75;;;1.67;82.03
58471;BME280;44258;51.288;12.068;2023-04-02T06:06:41;100518.50;;;2.01;80.18
58471;BME280;44258;51.288;12.068;2023-04-02T06:09:12;100521.28;;;1.93;80.37
58471;BME280;44258;51.288;12.068;2023-04-02T06:11:53;100535.28;;;2.01;80.20
58471;BME280;44258;51.288;12.068;2023-04-02T06:14:22;100533.69;;;1.89;81.17
58471;BME280;44258;51.288;12.068;2023-04-02T06:16:50;100538.31;;;1.78;82.04
58471;BME280;44258;51.288;12.068;2023-04-02T06:19:20;100534.81;;;2.27;80.52
58471;BME280;44258;51.288;12.068;2023-04-02T06:21:57;100552.72;;;1.62;83.02
58471;BME280;44258;51.288;12.068;2023-04-02T06:24:25;100558.56;;;1.84;80.90
58471;BME280;44258;51.288;12.068;2023-04-02T06:26:58;100554.13;;;1.84;80.41
58471;BME280;44258;51.288;12.068;2023-04-02T06:29:30;100558.06;;;2.61;77.77
58471;BME280;44258;51.288;12.068;2023-04-02T06:32:04;100570.88;;;1.88;79.08
58471;BME280;44258;51.288;12.068;2023-04-02T06:34:35;100576.31;;;1.77;79.83
58471;BME280;44258;51.288;12.068;2023-04-02T06:37:13;100588.34;;;2.00;78.63
58471;BME280;44258;51.288;12.068;2023-04-02T06:39:41;100594.00;;;1.77;78.88
58471;BME280;44258;51.288;12.068;2023-04-02T06:42:11;100594.88;;;1.77;78.89
58471;BME280;44258;51.288;12.068;2023-04-02T06:44:39;100599.88;;;1.38;79.69
58471;BME280;44258;51.288;12.068;2023-04-02T06:47:15;100602.53;;;1.38;79.20
58471;BME280;44258;51.288;12.068;2023-04-02T06:49:50;100610.13;;;1.63;78.93
58471;BME280;44258;51.288;12.068;2023-04-02T06:52:22;100616.06;;;1.79;78.85
58471;BME280;44258;51.288;12.068;2023-04-02T06:54:51;100615.41;;;2.20;76.69
58471;BME280;44258;51.288;12.068;2023-04-02T06:57:18;100629.81;;;2.04;77.73
58471;BME280;44258;51.288;12.068;2023-04-02T06:59:44;100627.91;;;1.56;78.52
58471;BME280;44258;51.288;12.068;2023-04-02T07:02:28;100632.09;;;2.27;76.05
58471;BME280;44258;51.288;12.068;2023-04-02T07:05:01;100640.00;;;2.30;74.70
58471;BME280;44258;51.288;12.068;2023-04-02T07:07:29;100651.84;;;2.09;76.04
58471;BME280;44258;51.288;12.068;2023-04-02T07:09:56;100649.63;;;1.81;76.96
58471;BME280;44258;51.288;12.068;2023-04-02T07:12:27;100668.47;;;1.61;76.53
58471;BME280;44258;51.288;12.068;2023-04-02T07:14:53;100665.31;;;1.95;76.11
58471;BME280;44258;51.288;12.068;2023-04-02T07:17:20;100676.94;;;1.88;76.02
58471;BME280;44258;51.288;12.068;2023-04-02T07:19:47;100673.28;;;1.33;77.54
58471;BME280;44258;51.288;12.068;2023-04-02T07:22:15;100686.28;;;1.50;77.05
58471;BME280;44258;51.288;12.068;2023-04-02T07:24:43;100688.88;;;1.55;76.83
58471;BME280;44258;51.288;12.068;2023-04-02T07:27:10;100686.69;;;1.16;77.47
58471;BME280;44258;51.288;12.068;2023-04-02T07:29:42;100688.91;;;1.53;77.47
58471;BME280;44258;51.288;12.068;2023-04-02T07:32:09;100692.94;;;2.38;73.38
58471;BME280;44258;51.288;12.068;2023-04-02T07:34:36;100696.31;;;1.91;74.73
58471;BME280;44258;51.288;12.068;2023-04-02T07:37:09;100705.03;;;2.00;75.17
58471;BME280;44258;51.288;12.068;2023-04-02T07:39:38;100703.75;;;1.66;74.71
58471;BME280;44258;51.288;12.068;2023-04-02T07:42:06;100717.88;;;1.67;74.89
58471;BME280;44258;51.288;12.068;2023-04-02T07:44:36;100727.06;;;1.38;74.44
58471;BME280;44258;51.288;12.068;2023-04-02T07:47:02;100724.94;;;1.68;74.42
58471;BME280;44258;51.288;12.068;2023-04-02T07:49:29;100736.31;;;2.37;71.77
58471;BME280;44258;51.288;12.068;2023-04-02T07:51:56;100731.53;;;2.01;72.71
58471;BME280;44258;51.288;12.068;2023-04-02T07:54:22;100736.47;;;1.62;74.24
58471;BME280;44258;51.288;12.068;2023-04-02T07:56:51;100737.41;;;1.60;73.73
58471;BME280;44258;51.288;12.068;2023-04-02T07:59:25;100744.13;;;1.85;72.87
58471;BME280;44258;51.288;12.068;2023-04-02T08:01:55;100760.09;;;1.84;73.77
58471;BME280;44258;51.288;12.068;2023-04-02T08:04:22;100761.72;;;1.92;71.24
58471;BME280;44258;51.288;12.068;2023-04-02T08:06:50;100766.31;;;2.40;70.54
58471;BME280;44258;51.288;12.068;2023-04-02T08:09:17;100768.88;;;2.48;71.19
58471;BME280;44258;51.288;12.068;2023-04-02T08:11:44;100772.25;;;2.58;69.11
58471;BME280;44258;51.288;12.068;2023-04-02T08:14:13;100784.50;;;1.36;70.30
58471;BME280;44258;51.288;12.068;2023-04-02T08:16:45;100793.22;;;1.44;71.12
58471;BME280;44258;51.288;12.068;2023-04-02T08:19:12;100795.28;;;1.95;70.96
58471;BME280;44258;51.288;12.068;2023-04-02T08:21:44;100794.00;;;1.56;71.92
58471;BME280;44258;51.288;12.068;2023-04-02T08:24:12;100799.84;;;1.84;70.44
58471;BME280;44258;51.288;12.068;2023-04-02T08:26:39;100813.50;;;1.50;70.40
58471;BME280;44258;51.288;12.068;2023-04-02T08:29:05;100819.06;;;2.00;69.90
58471;BME280;44258;51.288;12.068;2023-04-02T08:31:35;100817.47;;;2.51;68.39
58471;BME280;44258;51.288;12.068;2023-04-02T08:34:04;100816.66;;;1.81;69.42
58471;BME280;44258;51.288;12.068;2023-04-02T08:36:33;100821.38;;;2.27;68.52
58471;BME280;44258;51.288;12.068;2023-04-02T08:39:00;100830.75;;;1.85;68.76
58471;BME280;44258;51.288;12.068;2023-04-02T08:41:34;100825.13;;;2.12;68.60
58471;BME280;44258;51.288;12.068;2023-04-02T08:44:21;100833.94;;;2.13;68.16
58471;BME280;44258;51.288;12.068;2023-04-02T08:46:59;100836.41;;;1.57;68.13
58471;BME280;44258;51.288;12.068;2023-04-02T08:49:34;100838.19;;;2.26;67.40
58471;BME280;44258;51.288;12.068;2023-04-02T08:52:02;100839.66;;;1.79;68.62
58471;BME280;44258;51.288;12.068;2023-04-02T08:54:34;100842.94;;;2.01;70.64
58471;BME280;44258;51.288;12.068;2023-04-02T08:57:16;100840.94;;;2.20;70.11
58471;BME280;44258;51.288;12.068;2023-04-02T08:59:46;100852.41;;;2.22;70.53
58471;BME280;44258;51.288;12.068;2023-04-02T09:02:26;100847.91;;;2.26;68.72
58471;BME280;44258;51.288;12.068;2023-04-02T09:04:57;100854.25;;;2.16;68.88
58471;BME280;44258;51.288;12.068;2023-04-02T09:07:27;100856.16;;;2.68;67.77
58471;BME280;44258;51.288;12.068;2023-04-02T09:09:53;100860.97;;;2.41;67.84
58471;BME280;44258;51.288;12.068;2023-04-02T09:12:25;100860.81;;;2.52;67.20
58471;BME280;44258;51.288;12.068;2023-04-02T09:15:10;100867.56;;;2.73;67.26
58471;BME280;44258;51.288;12.068;2023-04-02T09:18:05;100867.25;;;2.34;67.18
58471;BME280;44258;51.288;12.068;2023-04-02T09:20:37;100876.91;;;2.43;67.55
58471;BME280;44258;51.288;12.068;2023-04-02T09:23:03;100881.84;;;2.02;68.44
58471;BME280;44258;51.288;12.068;2023-04-02T09:25:31;100888.22;;;2.56;67.91
58471;BME280;44258;51.288;12.068;2023-04-02T09:28:03;100896.50;;;2.31;68.96
58471;BME280;44258;51.288;12.068;2023-04-02T09:30:43;100896.72;;;2.14;69.13
58471;BME280;44258;51.288;12.068;2023-04-02T09:33:39;100898.16;;;2.38;68.00
58471;BME280;44258;51.288;12.068;2023-04-02T09:36:18;100898.56;;;2.07;70.20
58471;BME280;44258;51.288;12.068;2023-04-02T09:39:00;100904.81;;;2.71;66.97
58471;BME280;44258;51.288;12.068;2023-04-02T09:41:33;100912.09;;;2.56;67.79
58471;BME280;44258;51.288;12.068;2023-04-02T09:44:18;100915.53;;;2.62;68.07
58471;BME280;44258;51.288;12.068;2023-04-02T09:46:50;100917.25;;;2.65;67.74
58471;BME280;44258;51.288;12.068;2023-04-02T09:49:22;100928.09;;;3.11;66.65
58471;BME280;44258;51.288;12.068;2023-04-02T09:52:15;100929.66;;;2.64;67.15
58471;BME280;44258;51.288;12.068;2023-04-02T09:55:16;100939.50;;;2.59;67.28
58471;BME280;44258;51.288;12.068;2023-04-02T09:57:45;100942.69;;;2.83;65.65
58471;BME280;44258;51.288;12.068;2023-04-02T10:00:24;100940.94;;;2.82;66.12
58471;BME280;44258;51.288;12.068;2023-04-02T10:03:04;100951.91;;;2.56;67.19
58471;BME280;44258;51.288;12.068;2023-04-02T10:05:32;100948.25;;;3.26;66.02
58471;BME280;44258;51.288;12.068;2023-04-02T10:08:16;100947.47;;;2.58;65.50
58471;BME280;44258;51.288;12.068;2023-04-02T10:10:48;100950.81;;;2.70;66.63
58471;BME280;44258;51.288;12.068;2023-04-02T10:13:21;100961.53;;;1.90;68.13
58471;BME280;44258;51.288;12.068;2023-04-02T10:16:02;100953.38;;;2.80;66.86
58471;BME280;44258;51.288;12.068;2023-04-02T10:21:31;100970.56;;;2.51;67.46
58471;BME280;44258;51.288;12.068;2023-04-02T10:24:00;100967.34;;;2.24;66.75
58471;BME280;44258;51.288;12.068;2023-04-02T10:26:46;100977.59;;;2.55;66.72
58471;BME280;44258;51.288;12.068;2023-04-02T10:29:29;100976.78;;;3.13;66.00
58471;BME280;44258;51.288;12.068;2023-04-02T10:32:04;100985.75;;;3.06;66.46
58471;BME280;44258;51.288;12.068;2023-04-02T10:34:40;100980.97;;;2.68;66.71
58471;BME280;44258;51.288;12.068;2023-04-02T10:37:27;100988.34;;;3.09;65.71
58471;BME280;44258;51.288;12.068;2023-04-02T10:40:05;100997.63;;;2.03;67.50
58471;BME280;44258;51.288;12.068;2023-04-02T10:42:38;101001.34;;;2.66;66.91
58471;BME280;44258;51.288;12.068;2023-04-02T10:45:17;101002.94;;;2.05;67.45
58471;BME280;44258;51.288;12.068;2023-04-02T10:47:52;101006.56;;;1.95;68.10
58471;BME280;44258;51.288;12.068;2023-04-02T10:50:32;101002.59;;;2.34;68.29
58471;BME280;44258;51.288;12.068;2023-04-02T10:53:07;101016.88;;;2.98;66.89
58471;BME280;44258;51.288;12.068;2023-04-02T10:55:41;101014.69;;;2.60;66.20
58471;BME280;44258;51.288;12.068;2023-04-02T10:58:23;101017.81;;;2.91;64.47
58471;BME280;44258;51.288;12.068;2023-04-02T11:00:53;101025.09;;;3.40;63.46
58471;BME280;44258;51.288;12.068;2023-04-02T11:03:30;101012.47;;;3.56;61.83
58471;BME280;44258;51.288;12.068;2023-04-02T11:06:04;101024.09;;;3.50;62.52
58471;BME280;44258;51.288;12.068;2023-04-02T11:08:43;101030.13;;;3.62;62.65
58471;BME280;44258;51.288;12.068;2023-04-02T11:11:22;101022.22;;;3.56;62.67
58471;BME280;44258;51.288;12.068;2023-04-02T11:13:56;101029.88;;;3.77;62.45
58471;BME280;44258;51.288;12.068;2023-04-02T11:16:32;101030.44;;;4.43;60.12
58471;BME280;44258;51.288;12.068;2023-04-02T11:19:21;101035.84;;;3.91;59.61
58471;BME280;44258;51.288;12.068;2023-04-02T11:21:49;101043.06;;;3.83;61.24
58471;BME280;44258;51.288;12.068;2023-04-02T11:24:36;101047.03;;;3.58;60.71
58471;BME280;44258;51.288;12.068;2023-04-02T11:27:10;101043.50;;;2.93;63.28
58471;BME280;44258;51.288;12.068;2023-04-02T11:29:43;101050.78;;;3.43;63.09
58471;BME280;44258;51.288;12.068;2023-04-02T11:32:25;101059.44;;;3.57;62.85
58471;BME280;44258;51.288;12.068;2023-04-02T11:37:44;101059.38;;;4.13;61.33
58471;BME280;44258;51.288;12.068;2023-04-02T11:40:46;101071.28;;;4.42;59.46
58471;BME280;44258;51.288;12.068;2023-04-02T11:43:49;101068.84;;;4.31;60.72
58471;BME280;44258;51.288;12.068;2023-04-02T11:46:41;101082.59;;;4.06;59.93
58471;BME280;44258;51.288;12.068;2023-04-02T11:49:35;101078.31;;;4.46;58.24
58471;BME280;44258;51.288;12.068;2023-04-02T11:52:03;101077.97;;;4.16;58.84
58471;BME280;44258;51.288;12.068;2023-04-02T11:54:34;101076.50;;;4.00;60.47
58471;BME280;44258;51.288;12.068;2023-04-02T11:57:15;101085.84;;;4.24;60.88
58471;BME280;44258;51.288;12.068;2023-04-02T12:00:02;101085.91;;;4.67;58.78
58471;BME280;44258;51.288;12.068;2023-04-02T12:02:40;101092.22;;;4.62;58.02
58471;BME280;44258;51.288;12.068;2023-04-02T12:05:23;101080.06;;;4.92;56.68
58471;BME280;44258;51.288;12.068;2023-04-02T12:08:09;101094.00;;;4.13;58.64
58471;BME280;44258;51.288;12.068;2023-04-02T12:10:51;101089.94;;;4.42;58.62
58471;BME280;44258;51.288;12.068;2023-04-02T12:13:25;101092.75;;;4.34;58.41
58471;BME280;44258;51.288;12.068;2023-04-02T12:16:13;101097.94;;;3.89;59.69
58471;BME280;44258;51.288;12.068;2023-04-02T12:18:41;101104.16;;;3.89;60.19
58471;BME280;44258;51.288;12.068;2023-04-02T12:21:17;101107.38;;;4.08;58.49
58471;BME280;44258;51.288;12.068;2023-04-02T12:23:45;101102.13;;;4.53;58.63
58471;BME280;44258;51.288;12.068;2023-04-02T12:26:27;101105.22;;;4.32;58.75
58471;BME280;44258;51.288;12.068;2023-04-02T12:29:35;101111.13;;;4.48;58.73
58471;BME280;44258;51.288;12.068;2023-04-02T12:32:18;101110.25;;;4.92;57.86
58471;BME280;44258;51.288;12.068;2023-04-02T12:34:50;101115.00;;;4.78;58.46
58471;BME280;44258;51.288;12.068;2023-04-02T12:37:23;101120.53;;;4.67;57.87
58471;BME280;44258;51.288;12.068;2023-04-02T12:39:56;101124.72;;;4.34;59.08
58471;BME280;44258;51.288;12.068;2023-04-02T12:42:28;101122.94;;;4.33;58.46
58471;BME280;44258;51.288;12.068;2023-04-02T12:45:03;101113.81;;;4.93;57.50
58471;BME280;44258;51.288;12.068;2023-04-02T12:47:32;101120.38;;;5.19;56.48
58471;BME280;44258;51.288;12.068;2023-04-02T12:50:00;101116.50;;;4.93;57.02
58471;BME280;44258;51.288;12.068;2023-04-02T12:52:28;101119.66;;;5.52;55.63
58471;BME280;44258;51.288;12.068;2023-04-02T12:54:57;101122.13;;;4.78;58.36
58471;BME280;44258;51.288;12.068;2023-04-02T12:57:33;101118.59;;;5.60;56.29
58471;BME280;44258;51.288;12.068;2023-04-02T13:00:25;101117.38;;;4.93;56.69
58471;BME280;44258;51.288;12.068;2023-04-02T13:03:01;101122.41;;;5.07;57.19
58471;BME280;44258;51.288;12.068;2023-04-02T13:05:44;101124.78;;;5.21;57.12
58471;BME280;44258;51.288;12.068;2023-04-02T13:08:15;101126.25;;;5.36;56.87
58471;BME280;44258;51.288;12.068;2023-04-02T13:10:43;101125.28;;;5.78;56.23
58471;BME280;44258;51.288;12.068;2023-04-02T13:13:14;101133.28;;;5.39;56.28
58471;BME280;44258;51.288;12.068;2023-04-02T13:15:42;101139.22;;;5.53;54.99
58471;BME280;44258;51.288;12.068;2023-04-02T13:18:19;101140.91;;;5.56;53.85
58471;BME280;44258;51.288;12.068;2023-04-02T13:20:54;101137.19;;;5.64;54.43
58471;BME280;44258;51.288;12.068;2023-04-02T13:23:32;101146.78;;;5.31;54.39
58471;BME280;44258;51.288;12.068;2023-04-02T13:26:02;101153.50;;;5.50;54.79
58471;BME280;44258;51.288;12.068;2023-04-02T13:28:56;101156.94;;;5.13;54.22
58471;BME280;44258;51.288;12.068;2023-04-02T13:31:26;101151.13;;;4.93;54.05
58471;BME280;44258;51.288;12.068;2023-04-02T13:33:56;101146.81;;;5.70;54.49
58471;BME280;44258;51.288;12.068;2023-04-02T13:36:23;101147.06;;;6.00;53.30